Time;durP1;ratioP1;P1;durP2;ratioP2;P2;SDS_P1;SDS_P2;PMS_P1;PMS_P2;Temp;Humidity;BMP_temperature;BMP_pressure;BME280_temperature;BME280_humidity;BME280_pressure;Samples;Min_cycle;Max_cycle;Signal;HPM_P1;HPM_P2
2023/05/27 00:02:02;;;;;;;8.32;6.65;;;17.90;99.90;;;;;;4992659;28;20410;-67
2023/05/27 00:04:28;;;;;;;7.57;6.22;;;17.90;99.90;;;;;;4998064;28;20049;-67
2023/05/27 00:06:53;;;;;;;7.00;6.25;;;17.90;99.90;;;;;;4995687;28;20497;-68
2023/05/27 00:09:20;;;;;;;6.10;5.50;;;17.90;99.90;;;;;;4991272;28;20481;-67
2023/05/27 00:11:45;;;;;;;6.63;6.07;;;18.00;99.90;;;;;;4991960;28;20110;-67
2023/05/27 00:14:11;;;;;;;6.30;5.70;;;18.00;99.90;;;;;;4992821;28;20209;-67
2023/05/27 00:16:37;;;;;;;10.02;6.22;;;18.00;99.90;;;;;;4991867;28;20217;-66
2023/05/27 00:19:03;;;;;;;7.20;6.50;;;18.00;99.90;;;;;;4991985;28;20058;-67
2023/05/27 00:21:29;;;;;;;7.55;6.18;;;18.00;99.90;;;;;;4995963;28;20581;-65
2023/05/27 00:23:57;;;;;;;9.13;6.43;;;18.00;99.90;;;;;;4980856;28;20142;-64
2023/05/27 00:26:23;;;;;;;7.38;6.00;;;18.00;99.90;;;;;;4989657;28;20034;-64
2023/05/27 00:28:49;;;;;;;7.28;5.75;;;18.10;99.90;;;;;;4988976;28;20040;-63
2023/05/27 00:31:15;;;;;;;7.22;6.07;;;18.10;99.90;;;;;;4973066;28;20034;-64
2023/05/27 00:33:40;;;;;;;8.48;6.60;;;18.20;99.90;;;;;;4990216;28;20049;-64
2023/05/27 00:36:06;;;;;;;6.70;6.10;;;18.20;99.90;;;;;;4991641;28;20065;-64
2023/05/27 00:38:32;;;;;;;6.30;5.70;;;18.20;99.90;;;;;;4990270;28;20052;-64
2023/05/27 00:41:01;;;;;;;7.10;6.20;;;18.20;99.90;;;;;;4983867;28;20113;-64
2023/05/27 00:43:27;;;;;;;9.10;6.22;;;18.30;99.90;;;;;;4990489;28;20144;-64
2023/05/27 00:45:53;;;;;;;8.77;6.85;;;18.30;99.90;;;;;;4990350;28;20071;-65
2023/05/27 00:48:19;;;;;;;8.73;6.25;;;18.30;99.90;;;;;;4987875;28;20048;-65
2023/05/27 00:50:45;;;;;;;7.65;6.05;;;18.30;99.90;;;;;;4989259;28;20495;-65
2023/05/27 00:53:11;;;;;;;6.25;5.68;;;18.30;99.90;;;;;;4988335;28;20107;-64
2023/05/27 00:55:37;;;;;;;6.95;5.97;;;18.30;99.90;;;;;;4984875;28;20640;-63
2023/05/27 00:58:04;;;;;;;8.60;6.00;;;18.30;99.90;;;;;;4986534;28;20076;-63
2023/05/27 01:00:31;;;;;;;8.63;6.30;;;18.30;99.90;;;;;;4982687;28;20157;-62
2023/05/27 01:02:57;;;;;;;6.32;5.68;;;18.20;99.90;;;;;;4988611;28;20454;-62
2023/05/27 01:05:23;;;;;;;6.43;5.68;;;18.20;99.90;;;;;;4972075;28;20068;-62
2023/05/27 01:08:07;;;;;;;7.65;6.00;;;18.20;99.90;;;;;;4987535;28;20041;-63
2023/05/27 01:10:36;;;;;;;7.53;5.88;;;18.10;99.90;;;;;;4986988;28;20061;-63
2023/05/27 01:13:26;;;;;;;6.78;5.60;;;18.10;99.90;;;;;;4988451;28;20042;-63
2023/05/27 01:15:53;;;;;;;7.63;5.78;;;18.10;99.90;;;;;;4987537;28;20045;-63
2023/05/27 01:18:22;;;;;;;7.00;5.95;;;18.00;99.90;;;;;;4989005;28;20492;-63
2023/05/27 01:20:49;;;;;;;9.15;5.43;;;18.00;99.90;;;;;;4989156;28;20458;-63
2023/05/27 01:23:17;;;;;;;6.55;5.47;;;18.00;99.90;;;;;;4991264;28;20042;-63
2023/05/27 01:25:43;;;;;;;7.28;5.72;;;17.90;99.90;;;;;;4980080;28;20065;-63
2023/05/27 01:28:08;;;;;;;6.32;5.63;;;17.90;99.90;;;;;;4988851;28;20128;-63
2023/05/27 01:30:35;;;;;;;8.73;5.50;;;17.90;99.90;;;;;;4988010;28;20812;-63
2023/05/27 01:33:09;;;;;;;6.03;5.43;;;17.90;99.90;;;;;;4991276;28;20044;-63
2023/05/27 01:35:55;;;;;;;6.40;5.20;;;17.80;99.90;;;;;;4983357;28;20475;-63
2023/05/27 01:38:24;;;;;;;6.60;5.53;;;17.80;99.90;;;;;;4989729;28;20142;-68
2023/05/27 01:40:51;;;;;;;6.78;5.20;;;17.80;99.90;;;;;;4987311;28;20156;-68
2023/05/27 01:43:18;;;;;;;7.35;5.60;;;17.90;99.90;;;;;;4989843;28;20172;-68
2023/05/27 01:45:44;;;;;;;8.85;5.80;;;17.80;99.90;;;;;;4992143;28;20034;-68
2023/05/27 01:48:10;;;;;;;6.60;5.70;;;17.80;99.90;;;;;;4994055;28;20070;-69
2023/05/27 01:50:36;;;;;;;6.82;5.15;;;17.80;99.90;;;;;;4974799;28;20037;-68
2023/05/27 01:53:03;;;;;;;5.95;5.28;;;17.80;99.90;;;;;;4983189;28;20069;-67
2023/05/27 01:55:30;;;;;;;8.10;5.13;;;17.80;99.90;;;;;;4989147;28;20117;-67
2023/05/27 01:57:56;;;;;;;6.40;5.25;;;17.70;99.90;;;;;;4990443;28;20026;-62
2023/05/27 02:00:22;;;;;;;8.27;5.55;;;17.70;99.90;;;;;;4985574;28;20164;-62
2023/05/27 02:02:48;;;;;;;6.32;5.45;;;17.60;99.90;;;;;;4996505;28;20058;-62
2023/05/27 02:05:14;;;;;;;7.18;5.30;;;17.60;99.90;;;;;;4996489;28;20033;-62
2023/05/27 02:07:40;;;;;;;7.30;5.40;;;17.60;99.90;;;;;;4995149;28;20053;-62
2023/05/27 02:10:06;;;;;;;6.38;5.78;;;17.50;99.90;;;;;;4996947;28;20038;-63
2023/05/27 02:12:32;;;;;;;7.07;5.30;;;17.60;99.90;;;;;;4991901;28;20034;-63
2023/05/27 02:14:57;;;;;;;5.65;5.10;;;17.50;99.90;;;;;;4992844;28;20045;-68
2023/05/27 02:17:24;;;;;;;6.50;5.47;;;17.50;99.90;;;;;;4991438;28;20165;-68
2023/05/27 02:19:50;;;;;;;7.95;5.65;;;17.50;99.90;;;;;;4985377;28;20117;-68
2023/05/27 02:22:17;;;;;;;5.85;5.25;;;17.40;99.90;;;;;;4974503;28;20034;-68
2023/05/27 02:24:43;;;;;;;6.63;5.43;;;17.40;99.90;;;;;;4992753;28;20041;-68
2023/05/27 02:27:08;;;;;;;7.40;5.30;;;17.50;99.90;;;;;;4985272;28;20105;-68
2023/05/27 02:29:34;;;;;;;12.38;5.25;;;17.40;99.90;;;;;;4993488;28;20673;-68
2023/05/27 02:32:00;;;;;;;6.05;5.35;;;17.40;99.90;;;;;;4992864;28;20421;-68
2023/05/27 02:34:25;;;;;;;6.95;5.18;;;17.40;99.90;;;;;;4998620;28;20030;-63
2023/05/27 02:36:51;;;;;;;6.45;5.25;;;17.40;99.90;;;;;;4991486;28;20060;-63
2023/05/27 02:39:17;;;;;;;7.18;5.43;;;17.40;99.90;;;;;;4992749;28;20073;-63
2023/05/27 02:41:43;;;;;;;9.18;4.90;;;17.40;99.90;;;;;;4992347;28;20022;-63
2023/05/27 02:44:08;;;;;;;7.38;5.43;;;17.40;99.90;;;;;;4988886;28;20584;-63
2023/05/27 02:46:34;;;;;;;7.20;5.53;;;17.40;99.90;;;;;;4993302;28;20042;-63
2023/05/27 02:49:00;;;;;;;6.38;5.00;;;17.40;99.90;;;;;;4994038;28;20041;-63
2023/05/27 02:51:25;;;;;;;6.53;5.68;;;17.40;99.90;;;;;;4988772;28;20614;-63
2023/05/27 02:53:51;;;;;;;8.10;5.70;;;17.40;99.90;;;;;;4989432;28;20050;-68
2023/05/27 02:56:17;;;;;;;8.68;4.95;;;17.50;99.90;;;;;;4994736;28;20034;-68
2023/05/27 02:58:43;;;;;;;9.38;5.72;;;17.50;99.90;;;;;;4993912;28;20030;-68
2023/05/27 03:01:08;;;;;;;8.25;5.38;;;17.50;99.90;;;;;;4993590;28;20048;-68
2023/05/27 03:03:34;;;;;;;7.95;5.20;;;17.50;99.90;;;;;;4992770;28;20046;-68
2023/05/27 03:06:00;;;;;;;7.38;5.70;;;17.50;99.90;;;;;;4993803;28;20061;-68
2023/05/27 03:08:26;;;;;;;7.30;4.82;;;17.60;99.90;;;;;;4990431;28;20124;-68
2023/05/27 03:10:51;;;;;;;6.97;5.10;;;17.60;99.90;;;;;;4991513;28;20042;-63
2023/05/27 03:13:17;;;;;;;12.38;5.40;;;17.60;99.90;;;;;;4990268;28;20605;-63
2023/05/27 03:15:43;;;;;;;7.03;5.30;;;17.60;99.90;;;;;;4990168;28;20026;-63
2023/05/27 03:18:08;;;;;;;6.57;4.97;;;17.60;99.90;;;;;;4991185;28;20046;-63
2023/05/27 03:20:35;;;;;;;10.48;5.45;;;17.60;99.90;;;;;;4992410;28;20142;-63
2023/05/27 03:23:01;;;;;;;7.32;5.28;;;17.50;99.90;;;;;;4988274;28;20045;-63
2023/05/27 03:25:26;;;;;;;6.45;5.10;;;17.50;99.90;;;;;;4992504;28;20042;-63
2023/05/27 03:27:53;;;;;;;5.97;5.38;;;17.50;99.90;;;;;;4984941;28;21224;-63
2023/05/27 03:30:19;;;;;;;7.10;5.28;;;17.50;99.90;;;;;;4991373;28;20033;-63
2023/05/27 03:32:45;;;;;;;6.43;4.65;;;17.60;99.90;;;;;;4991931;28;20045;-63
2023/05/27 03:35:11;;;;;;;5.63;4.70;;;17.60;99.90;;;;;;4994598;28;20375;-63
2023/05/27 03:37:36;;;;;;;6.95;5.35;;;17.60;99.90;;;;;;4991328;28;20030;-63
2023/05/27 03:40:03;;;;;;;7.30;5.20;;;17.60;99.90;;;;;;4995444;28;20042;-63
2023/05/27 03:42:28;;;;;;;7.57;5.22;;;17.70;99.90;;;;;;4993245;28;20042;-63
2023/05/27 03:44:54;;;;;;;7.85;6.13;;;17.70;99.90;;;;;;4998213;28;20383;-63
2023/05/27 03:47:21;;;;;;;9.02;5.05;;;17.80;99.90;;;;;;4990630;28;20041;-63
2023/05/27 03:49:47;;;;;;;6.70;5.32;;;17.80;99.90;;;;;;4993937;28;20037;-63
2023/05/27 03:52:13;;;;;;;6.03;4.88;;;17.90;99.90;;;;;;4990132;28;20104;-69
2023/05/27 03:54:38;;;;;;;8.13;5.22;;;17.90;99.90;;;;;;4991429;28;20034;-69
2023/05/27 03:57:04;;;;;;;5.55;5.00;;;18.00;99.90;;;;;;4992897;28;20349;-68
2023/05/27 03:59:30;;;;;;;6.78;4.97;;;18.10;99.90;;;;;;4992069;28;20057;-69
2023/05/27 04:01:55;;;;;;;7.80;4.75;;;18.20;99.90;;;;;;4993858;28;20058;-69
2023/05/27 04:04:21;;;;;;;5.40;4.57;;;18.20;99.90;;;;;;4996569;28;20044;-68
2023/05/27 04:06:47;;;;;;;7.05;4.97;;;18.20;99.90;;;;;;4991401;28;20033;-67
2023/05/27 04:09:12;;;;;;;6.18;5.57;;;18.20;99.90;;;;;;4991122;28;20466;-63
2023/05/27 04:11:38;;;;;;;9.70;5.82;;;18.20;99.90;;;;;;4994681;28;20046;-64
2023/05/27 04:14:05;;;;;;;8.40;5.38;;;18.20;99.90;;;;;;4995994;28;20049;-63
2023/05/27 04:16:33;;;;;;;6.20;4.88;;;18.20;99.90;;;;;;5001310;28;20053;-63
2023/05/27 04:19:02;;;;;;;6.15;5.25;;;18.30;99.90;;;;;;4997573;28;20069;-63
2023/05/27 04:21:28;;;;;;;8.95;5.07;;;18.30;99.90;;;;;;4991826;28;20060;-63
2023/05/27 04:23:53;;;;;;;6.15;4.50;;;18.30;99.90;;;;;;4995457;28;20038;-63
2023/05/27 04:26:19;;;;;;;6.50;5.40;;;18.40;99.90;;;;;;4993215;28;20048;-63
2023/05/27 04:28:45;;;;;;;8.38;5.78;;;18.40;99.90;;;;;;4999854;28;20639;-63
2023/05/27 04:31:12;;;;;;;19.38;5.93;;;18.50;99.90;;;;;;4997046;28;20029;-69
2023/05/27 04:33:39;;;;;;;9.52;4.78;;;18.50;99.90;;;;;;4986627;28;20128;-68
2023/05/27 04:36:06;;;;;;;7.95;5.15;;;18.60;99.90;;;;;;4993529;28;20121;-69
2023/05/27 04:38:32;;;;;;;7.72;5.10;;;18.60;99.90;;;;;;4998485;28;20033;-66
2023/05/27 04:40:59;;;;;;;6.90;5.20;;;18.60;99.90;;;;;;4998070;28;20052;-69
2023/05/27 04:43:26;;;;;;;5.18;4.68;;;18.70;99.90;;;;;;4996262;28;20037;-67
2023/05/27 04:45:52;;;;;;;21.95;5.50;;;18.70;99.90;;;;;;5000127;28;20061;-68
2023/05/27 04:48:19;;;;;;;6.88;4.97;;;18.70;99.90;;;;;;4996145;28;20026;-63
2023/05/27 04:50:45;;;;;;;7.10;4.88;;;18.80;99.90;;;;;;4995476;28;20053;-63
2023/05/27 04:53:11;;;;;;;7.05;4.43;;;18.80;99.90;;;;;;4996759;28;20041;-62
2023/05/27 04:55:38;;;;;;;5.53;4.55;;;18.90;99.90;;;;;;4980234;28;20041;-63
2023/05/27 04:58:05;;;;;;;4.32;3.92;;;18.90;99.90;;;;;;4991167;28;20046;-65
2023/05/27 05:00:49;;;;;;;8.55;4.25;;;19.00;99.90;;;;;;4990442;28;20050;-62
2023/05/27 05:03:22;;;;;;;6.80;4.40;;;18.90;99.90;;;;;;4980136;28;20525;-62
2023/05/27 05:05:51;;;;;;;6.72;4.30;;;19.00;99.90;;;;;;4997821;28;20241;-68
2023/05/27 05:08:17;;;;;;;5.40;4.40;;;19.10;99.90;;;;;;4994530;28;20096;-69
2023/05/27 05:10:43;;;;;;;7.85;4.57;;;19.20;99.90;;;;;;4992999;28;20498;-69
2023/05/27 05:13:09;;;;;;;6.75;4.45;;;19.30;99.90;;;;;;4999356;28;20149;-70
2023/05/27 05:15:35;;;;;;;5.85;4.53;;;19.30;99.90;;;;;;4993841;28;20605;-69
2023/05/27 05:18:00;;;;;;;7.60;4.53;;;19.40;99.90;;;;;;4993595;28;20050;-69
2023/05/27 05:20:26;;;;;;;6.13;4.57;;;19.40;99.90;;;;;;4994077;28;20049;-69
2023/05/27 05:22:51;;;;;;;7.60;4.68;;;19.50;99.90;;;;;;4991873;28;20050;-69
2023/05/27 05:25:17;;;;;;;6.28;4.75;;;19.50;99.90;;;;;;4994601;28;20069;-64
2023/05/27 05:27:43;;;;;;;6.35;4.13;;;19.50;99.90;;;;;;4994571;28;20042;-69
2023/05/27 05:30:08;;;;;;;4.88;4.38;;;19.50;99.90;;;;;;4991856;28;20045;-68
2023/05/27 05:32:34;;;;;;;7.45;5.13;;;19.50;99.90;;;;;;4995567;28;20490;-68
2023/05/27 05:35:00;;;;;;;6.70;4.10;;;19.60;99.90;;;;;;4993278;28;20052;-68
2023/05/27 05:37:25;;;;;;;7.90;4.80;;;19.60;99.90;;;;;;4990167;28;20035;-68
2023/05/27 05:39:53;;;;;;;6.63;4.72;;;19.70;99.90;;;;;;4996214;28;20538;-69
2023/05/27 05:42:19;;;;;;;7.93;4.72;;;19.60;99.90;;;;;;4995495;28;20038;-67
2023/05/27 05:44:44;;;;;;;6.63;4.05;;;19.60;99.90;;;;;;4994753;28;20041;-63
2023/05/27 05:47:10;;;;;;;7.72;4.40;;;19.60;99.90;;;;;;4994351;28;20042;-67
2023/05/27 05:49:35;;;;;;;8.63;4.43;;;19.70;99.90;;;;;;4991802;28;20120;-67
2023/05/27 05:52:01;;;;;;;8.68;3.97;;;19.70;99.90;;;;;;4993249;28;20057;-67
2023/05/27 05:54:27;;;;;;;4.15;3.75;;;19.70;99.90;;;;;;4993050;28;20040;-67
2023/05/27 05:56:52;;;;;;;6.18;4.25;;;19.80;99.90;;;;;;4992740;28;20750;-67
2023/05/27 05:59:18;;;;;;;7.32;4.40;;;19.80;99.90;;;;;;4993436;28;20037;-67
2023/05/27 06:01:43;;;;;;;5.55;4.55;;;19.80;99.90;;;;;;4988781;28;20103;-67
2023/05/27 06:04:09;;;;;;;8.02;4.40;;;19.80;99.90;;;;;;4990990;28;20485;-63
2023/05/27 06:06:35;;;;;;;6.82;4.20;;;19.80;99.90;;;;;;4991381;28;20056;-63
2023/05/27 06:09:01;;;;;;;21.33;4.78;;;19.70;99.90;;;;;;4992922;28;20050;-63
2023/05/27 06:11:26;;;;;;;8.13;4.35;;;19.70;99.90;;;;;;4995814;28;20286;-63
2023/05/27 06:13:52;;;;;;;10.30;4.07;;;19.70;99.90;;;;;;4990412;28;20370;-63
2023/05/27 06:16:18;;;;;;;9.38;4.05;;;19.80;99.90;;;;;;4988447;28;20109;-64
2023/05/27 06:18:45;;;;;;;5.07;4.05;;;19.70;99.90;;;;;;4994157;28;20042;-64
2023/05/27 06:21:11;;;;;;;5.60;3.70;;;19.60;99.90;;;;;;4973844;28;20053;-64
2023/05/27 06:23:37;;;;;;;5.88;4.32;;;19.70;99.90;;;;;;4990171;28;20140;-63
2023/05/27 06:26:03;;;;;;;6.70;3.63;;;19.80;99.90;;;;;;4998132;28;20148;-63
2023/05/27 06:28:28;;;;;;;7.38;4.03;;;19.80;99.90;;;;;;4994503;28;20065;-63
2023/05/27 06:30:54;;;;;;;5.63;4.30;;;19.90;99.90;;;;;;4987353;28;20042;-62
2023/05/27 06:33:20;;;;;;;9.52;4.40;;;19.90;99.90;;;;;;4986606;28;20026;-63
2023/05/27 06:35:46;;;;;;;7.05;4.07;;;20.00;99.90;;;;;;4985786;28;20475;-63
2023/05/27 06:38:12;;;;;;;7.65;4.20;;;20.00;99.90;;;;;;4988748;28;20392;-63
2023/05/27 06:40:37;;;;;;;7.30;4.10;;;20.10;99.90;;;;;;4993588;28;20526;-66
2023/05/27 06:43:03;;;;;;;5.80;4.10;;;20.10;99.90;;;;;;4987286;28;20121;-69
2023/05/27 06:45:28;;;;;;;7.40;4.20;;;20.20;99.90;;;;;;4985547;28;20038;-63
2023/05/27 06:47:54;;;;;;;6.13;3.90;;;20.20;99.90;;;;;;4972224;28;20455;-62
2023/05/27 06:50:20;;;;;;;5.20;3.75;;;20.20;99.90;;;;;;4987741;28;20136;-62
2023/05/27 06:52:46;;;;;;;7.85;4.50;;;20.20;99.90;;;;;;4984904;28;20231;-63
2023/05/27 06:55:11;;;;;;;12.80;3.92;;;20.20;99.90;;;;;;4989507;28;20045;-64
2023/05/27 06:57:37;;;;;;;6.90;4.07;;;20.30;99.90;;;;;;4992652;28;20097;-62
2023/05/27 07:00:05;;;;;;;7.93;4.70;;;20.30;99.90;;;;;;4988323;28;20129;-61
2023/05/27 07:02:30;;;;;;;5.93;4.85;;;20.40;99.90;;;;;;4980135;28;20030;-67
2023/05/27 07:04:56;;;;;;;24.52;4.90;;;20.40;99.90;;;;;;4988409;28;20330;-63
2023/05/27 07:07:22;;;;;;;7.85;4.53;;;20.50;99.90;;;;;;4992870;28;20739;-63
2023/05/27 07:09:47;;;;;;;7.35;3.92;;;20.50;99.90;;;;;;4997012;28;20026;-63
2023/05/27 07:12:13;;;;;;;5.72;4.25;;;20.60;99.90;;;;;;4993142;28;20042;-63
2023/05/27 07:14:39;;;;;;;8.50;4.40;;;20.60;99.90;;;;;;4993525;28;20454;-63
2023/05/27 07:17:05;;;;;;;4.65;3.85;;;20.70;99.90;;;;;;4996220;28;20137;-63
2023/05/27 07:19:30;;;;;;;8.98;4.00;;;20.70;99.90;;;;;;4987202;28;20464;-68
2023/05/27 07:21:56;;;;;;;7.07;4.28;;;20.60;99.90;;;;;;4993922;28;20096;-67
2023/05/27 07:24:22;;;;;;;6.15;4.10;;;20.60;99.90;;;;;;4989037;28;20478;-68
2023/05/27 07:26:47;;;;;;;5.75;4.28;;;20.60;99.90;;;;;;4988554;28;20078;-68
2023/05/27 07:29:13;;;;;;;4.13;3.28;;;20.70;99.90;;;;;;4973544;28;20656;-68
2023/05/27 07:31:39;;;;;;;7.32;4.00;;;20.70;99.90;;;;;;4985847;28;20046;-68
2023/05/27 07:34:04;;;;;;;5.50;3.70;;;20.80;99.90;;;;;;4989416;28;20050;-68
2023/05/27 07:36:30;;;;;;;7.30;3.85;;;20.80;99.90;;;;;;4986059;28;20038;-67
2023/05/27 07:38:55;;;;;;;6.05;3.83;;;20.80;99.90;;;;;;4993592;28;20019;-68
2023/05/27 07:41:21;;;;;;;5.15;3.80;;;20.80;99.90;;;;;;4992391;28;20033;-68
2023/05/27 07:43:47;;;;;;;6.63;3.60;;;20.80;99.90;;;;;;4998362;28;20407;-68
2023/05/27 07:46:13;;;;;;;6.40;3.83;;;20.90;99.90;;;;;;4989046;28;20049;-69
2023/05/27 07:48:38;;;;;;;6.18;4.15;;;20.90;99.90;;;;;;4990630;28;20100;-69
2023/05/27 07:51:04;;;;;;;6.15;3.58;;;20.80;99.90;;;;;;4989441;28;20033;-68
2023/05/27 07:53:30;;;;;;;7.75;3.75;;;20.70;99.90;;;;;;4993422;28;20053;-68
2023/05/27 07:55:55;;;;;;;7.88;4.07;;;20.80;99.90;;;;;;4999768;28;20052;-68
2023/05/27 07:58:21;;;;;;;4.97;3.58;;;21.00;99.90;;;;;;4994487;28;20528;-63
2023/05/27 08:00:46;;;;;;;7.68;3.22;;;21.10;99.90;;;;;;4986206;28;20050;-62
2023/05/27 08:03:12;;;;;;;6.53;3.63;;;21.20;99.90;;;;;;4995245;28;20030;-63
2023/05/27 08:05:38;;;;;;;4.93;3.00;;;21.30;99.90;;;;;;4977526;28;20416;-63
2023/05/27 08:08:03;;;;;;;6.07;3.78;;;21.40;99.90;;;;;;4994664;28;20033;-63
2023/05/27 08:10:29;;;;;;;7.95;3.47;;;21.40;99.90;;;;;;4994170;28;20049;-63
2023/05/27 08:12:55;;;;;;;5.70;3.42;;;21.40;99.90;;;;;;4999920;28;20101;-63
2023/05/27 08:15:20;;;;;;;8.18;3.58;;;21.60;99.90;;;;;;4994627;28;20100;-63
2023/05/27 08:17:46;;;;;;;6.43;3.70;;;21.60;99.90;;;;;;4996604;28;20518;-62
2023/05/27 08:20:12;;;;;;;6.25;3.38;;;21.60;99.90;;;;;;4998728;28;20447;-62
2023/05/27 08:22:37;;;;;;;4.70;3.30;;;21.50;99.90;;;;;;4990710;28;20037;-63
2023/05/27 08:25:04;;;;;;;4.13;3.30;;;21.50;99.90;;;;;;4987498;28;20120;-63
2023/05/27 08:27:44;;;;;;;6.00;3.00;;;21.60;99.90;;;;;;4988860;28;20039;-63
2023/05/27 08:30:12;;;;;;;6.97;3.28;;;21.60;99.90;;;;;;4990629;28;20326;-63
2023/05/27 08:32:37;;;;;;;5.40;3.03;;;21.70;99.90;;;;;;4993776;28;20198;-63
2023/05/27 08:35:03;;;;;;;7.78;3.25;;;21.70;99.90;;;;;;4989569;28;20049;-63
2023/05/27 08:37:29;;;;;;;5.97;2.92;;;21.90;99.90;;;;;;4989212;28;20667;-68
2023/05/27 08:39:57;;;;;;;5.38;2.90;;;21.90;99.90;;;;;;4992423;28;20512;-69
2023/05/27 08:42:24;;;;;;;4.22;2.92;;;22.00;99.90;;;;;;4988370;28;20023;-68
2023/05/27 08:44:50;;;;;;;6.03;3.35;;;22.10;99.90;;;;;;4991631;28;20454;-68
2023/05/27 08:47:17;;;;;;;4.40;2.78;;;22.00;99.90;;;;;;4997498;28;20080;-68
2023/05/27 08:49:43;;;;;;;8.25;2.78;;;22.00;99.90;;;;;;4976661;28;20705;-68
2023/05/27 08:52:10;;;;;;;5.93;2.90;;;22.00;99.90;;;;;;4993432;28;20038;-68
2023/05/27 08:54:37;;;;;;;5.43;2.75;;;22.00;99.90;;;;;;4998220;28;20034;-63
2023/05/27 08:57:09;;;;;;;4.63;2.60;;;22.00;99.90;;;;;;4985907;28;20030;-63
2023/05/27 08:59:36;;;;;;;5.68;2.70;;;21.90;99.90;;;;;;4991674;28;20432;-63
2023/05/27 09:02:05;;;;;;;6.18;3.33;;;22.00;99.90;;;;;;4991729;28;20078;-64
2023/05/27 09:04:31;;;;;;;6.00;2.58;;;22.00;99.90;;;;;;4987680;28;20062;-64
2023/05/27 09:06:57;;;;;;;4.93;2.90;;;21.90;99.90;;;;;;4994569;28;20656;-63
2023/05/27 09:09:22;;;;;;;5.32;2.70;;;22.00;99.90;;;;;;4992838;28;20030;-63
2023/05/27 09:11:48;;;;;;;5.45;3.20;;;22.00;99.90;;;;;;4990099;28;20593;-63
2023/05/27 09:14:23;;;;;;;4.25;2.63;;;22.10;99.90;;;;;;4988951;28;20847;-68
2023/05/27 09:16:48;;;;;;;6.22;2.85;;;22.30;99.90;;;;;;4990393;28;20044;-68
2023/05/27 09:19:18;;;;;;;4.45;3.10;;;22.40;99.90;;;;;;4988726;28;20042;-69
2023/05/27 09:21:44;;;;;;;5.72;2.80;;;22.50;99.90;;;;;;4988294;28;20038;-68
2023/05/27 09:24:11;;;;;;;3.85;2.63;;;22.60;99.90;;;;;;4985984;28;20132;-69
2023/05/27 09:26:37;;;;;;;8.10;2.92;;;22.60;99.90;;;;;;4992056;28;20030;-68
2023/05/27 09:29:07;;;;;;;6.25;2.97;;;22.70;99.90;;;;;;4983706;28;20034;-68
2023/05/27 09:31:39;;;;;;;6.80;3.67;;;22.80;99.90;;;;;;4997242;28;20035;-69
2023/05/27 09:34:12;;;;;;;6.55;3.95;;;22.80;99.60;;;;;;4993854;28;23626;-68
2023/05/27 09:36:48;;;;;;;7.15;3.20;;;22.80;99.00;;;;;;4992551;28;20030;-63
2023/05/27 09:39:14;;;;;;;9.35;3.63;;;22.80;99.10;;;;;;4989985;28;20053;-63
2023/05/27 09:41:41;;;;;;;6.35;2.95;;;22.80;98.10;;;;;;4993653;28;20053;-64
2023/05/27 09:44:07;;;;;;;4.07;2.90;;;22.80;99.90;;;;;;4982464;28;20645;-63
2023/05/27 09:46:34;;;;;;;6.50;3.10;;;23.00;99.90;;;;;;4967372;28;20079;-63
2023/05/27 09:49:02;;;;;;;5.05;2.50;;;22.90;99.20;;;;;;4993382;28;20026;-63
2023/05/27 09:51:28;;;;;;;6.72;2.67;;;22.90;98.30;;;;;;4985563;28;20038;-68
2023/05/27 09:53:57;;;;;;;7.75;3.10;;;22.80;98.70;;;;;;4972815;28;20465;-63
2023/05/27 09:56:27;;;;;;;5.93;3.20;;;22.70;99.90;;;;;;4987525;28;20041;-63
2023/05/27 09:58:57;;;;;;;6.28;3.53;;;22.70;99.50;;;;;;4986920;28;20030;-63
2023/05/27 10:01:28;;;;;;;6.50;3.15;;;22.70;98.50;;;;;;4987535;28;20061;-63
2023/05/27 10:03:56;;;;;;;5.03;3.08;;;22.60;99.00;;;;;;4991150;28;20052;-63
2023/05/27 10:06:24;;;;;;;4.32;3.20;;;22.50;99.60;;;;;;4988442;28;20049;-64
2023/05/27 10:08:53;;;;;;;11.40;4.13;;;22.50;99.20;;;;;;4982852;28;20152;-70
2023/05/27 10:11:19;;;;;;;5.20;3.10;;;22.60;99.50;;;;;;4965774;28;20064;-72
2023/05/27 10:13:46;;;;;;;6.10;3.10;;;22.60;98.60;;;;;;4988435;28;20805;-70
2023/05/27 10:16:21;;;;;;;5.85;3.40;;;22.60;99.10;;;;;;4982550;28;20048;-70
2023/05/27 10:18:52;;;;;;;5.28;3.20;;;22.70;99.50;;;;;;4976671;28;20041;-69
2023/05/27 10:21:22;;;;;;;6.25;3.03;;;22.80;99.60;;;;;;4986353;28;20057;-63
2023/05/27 10:23:57;;;;;;;5.60;3.67;;;22.70;98.10;;;;;;4985906;28;20686;-63
2023/05/27 10:26:35;;;;;;;6.32;3.05;;;22.60;98.80;;;;;;4988375;28;20121;-63
2023/05/27 10:29:15;;;;;;;3.88;3.03;;;22.60;99.60;;;;;;4987387;28;20108;-63
2023/05/27 10:31:51;;;;;;;12.57;3.33;;;22.50;98.80;;;;;;4990817;28;20030;-63
2023/05/27 10:34:18;;;;;;;6.47;3.28;;;22.50;99.90;;;;;;4987553;28;20038;-63
2023/05/27 10:36:45;;;;;;;5.28;3.38;;;22.60;99.90;;;;;;4983625;28;20064;-63
2023/05/27 10:39:16;;;;;;;7.30;3.40;;;22.70;99.90;;;;;;4987269;28;20037;-63
2023/05/27 10:41:50;;;;;;;6.80;4.00;;;22.90;99.90;;;;;;4987893;28;20221;-63
2023/05/27 10:44:26;;;;;;;3.78;3.38;;;22.90;99.90;;;;;;4966881;28;20564;-63
2023/05/27 10:47:02;;;;;;;5.20;3.05;;;22.80;99.00;;;;;;4981470;28;20054;-63
2023/05/27 10:49:35;;;;;;;4.47;3.13;;;22.70;99.90;;;;;;4981152;28;20103;-63
2023/05/27 10:52:15;;;;;;;4.78;3.42;;;22.80;99.90;;;;;;4982385;28;20039;-68
2023/05/27 10:54:50;;;;;;;6.03;3.70;;;22.90;99.90;;;;;;4994164;28;20057;-68
2023/05/27 10:57:17;;;;;;;6.18;3.50;;;23.10;99.90;;;;;;4975819;28;20217;-67
2023/05/27 10:59:52;;;;;;;5.43;3.38;;;23.10;99.90;;;;;;4996639;28;20034;-68
2023/05/27 11:02:18;;;;;;;6.15;3.45;;;23.20;98.70;;;;;;4989023;28;20033;-67
2023/05/27 11:04:44;;;;;;;4.38;3.08;;;23.00;99.30;;;;;;4970755;28;20621;-67
2023/05/27 11:07:10;;;;;;;5.65;3.92;;;23.10;99.90;;;;;;4985004;28;20242;-67
2023/05/27 11:09:48;;;;;;;4.93;3.33;;;23.10;99.90;;;;;;4993884;28;20034;-68
2023/05/27 11:12:18;;;;;;;6.13;3.85;;;23.10;98.60;;;;;;4986830;28;20655;-69
2023/05/27 11:14:53;;;;;;;4.15;3.35;;;23.00;98.40;;;;;;4986204;28;20046;-68
2023/05/27 11:17:19;;;;;;;6.05;3.22;;;23.00;99.90;;;;;;4981951;28;20056;-67
2023/05/27 11:19:45;;;;;;;4.63;3.17;;;23.20;98.40;;;;;;4982125;28;20054;-63
2023/05/27 11:22:13;;;;;;;10.50;3.67;;;23.30;98.30;;;;;;4986651;28;20041;-68
2023/05/27 11:24:39;;;;;;;6.32;3.53;;;23.40;98.60;;;;;;4986771;28;20214;-68
2023/05/27 11:27:23;;;;;;;6.43;4.20;;;23.40;98.40;;;;;;4996145;28;20037;-69
2023/05/27 11:29:51;;;;;;;5.72;3.83;;;23.30;99.90;;;;;;4994688;28;20108;-63
2023/05/27 11:32:17;;;;;;;6.88;3.53;;;23.30;98.40;;;;;;4984520;28;20053;-63
2023/05/27 11:34:46;;;;;;;5.75;4.00;;;23.30;98.20;;;;;;4992736;28;20057;-63
2023/05/27 11:37:12;;;;;;;6.20;3.97;;;23.10;98.30;;;;;;4994462;28;20026;-63
2023/05/27 11:39:52;;;;;;;6.57;3.95;;;23.00;97.60;;;;;;4992441;28;20046;-63
2023/05/27 11:42:23;;;;;;;6.20;3.95;;;22.90;98.10;;;;;;4999726;28;20513;-63
2023/05/27 11:44:53;;;;;;;6.03;3.37;;;23.00;98.80;;;;;;5001395;28;20131;-64
2023/05/27 11:47:19;;;;;;;7.10;3.70;;;23.00;99.00;;;;;;4994609;28;20065;-63
2023/05/27 11:49:49;;;;;;;4.22;3.72;;;23.10;99.10;;;;;;4994814;28;20125;-63
2023/05/27 11:52:15;;;;;;;12.23;4.15;;;23.10;99.20;;;;;;4996042;28;20121;-63
2023/05/27 11:54:41;;;;;;;5.00;3.97;;;23.20;98.50;;;;;;4996843;28;20456;-63
2023/05/27 11:57:07;;;;;;;6.00;4.18;;;23.10;99.10;;;;;;4979575;28;20506;-63
2023/05/27 11:59:40;;;;;;;8.90;4.25;;;23.10;98.90;;;;;;4991435;28;20050;-63
2023/05/27 12:02:06;;;;;;;4.97;3.40;;;23.20;98.10;;;;;;4977575;28;20027;-63
2023/05/27 12:04:32;;;;;;;4.93;3.67;;;23.20;98.70;;;;;;4985899;28;20114;-64
2023/05/27 12:07:00;;;;;;;6.95;4.38;;;23.20;99.00;;;;;;4983545;28;20050;-69
2023/05/27 12:09:26;;;;;;;5.78;3.50;;;23.20;98.90;;;;;;4983410;28;20112;-69
2023/05/27 12:11:52;;;;;;;4.50;3.70;;;23.30;99.00;;;;;;4984222;28;20068;-69
2023/05/27 12:14:17;;;;;;;5.32;3.40;;;23.30;98.60;;;;;;4980905;28;20114;-69
2023/05/27 12:16:43;;;;;;;6.95;3.90;;;23.40;99.00;;;;;;4987805;28;20660;-69
2023/05/27 12:19:11;;;;;;;6.28;3.97;;;23.50;98.80;;;;;;4983043;28;20491;-68
2023/05/27 12:21:37;;;;;;;4.75;3.67;;;23.50;99.00;;;;;;4980234;28;20169;-68
2023/05/27 12:24:03;;;;;;;5.00;3.90;;;23.40;98.50;;;;;;4987068;28;20156;-69
2023/05/27 12:26:29;;;;;;;5.72;4.35;;;23.40;99.30;;;;;;4985240;28;20054;-63
2023/05/27 12:28:56;;;;;;;6.13;3.95;;;23.40;99.90;;;;;;4982787;28;20390;-64
2023/05/27 12:31:22;;;;;;;10.25;4.47;;;23.30;99.90;;;;;;4986832;28;20045;-63
2023/05/27 12:33:48;;;;;;;6.43;4.10;;;23.30;99.90;;;;;;4993793;28;20118;-63
2023/05/27 12:36:14;;;;;;;5.82;3.97;;;23.30;99.90;;;;;;4988769;28;20334;-63
2023/05/27 12:38:40;;;;;;;6.05;4.28;;;23.30;99.70;;;;;;4995706;28;20073;-64
2023/05/27 12:41:06;;;;;;;7.30;4.55;;;23.30;99.90;;;;;;4992310;28;20152;-63
2023/05/27 12:43:32;;;;;;;5.10;3.88;;;23.40;99.90;;;;;;4989682;28;20459;-64
2023/05/27 12:45:59;;;;;;;5.22;3.67;;;23.40;99.10;;;;;;4994577;28;20192;-64